sensor_id;sensor_type;location;lat;lon;timestamp;P1;durP1;ratioP1;P2;durP2;ratioP2
75616;SDS011;64200;55.426;37.758;2022-10-16T00:00:40;3.45;;;1.98;;
75616;SDS011;64200;55.426;37.758;2022-10-16T00:05:42;5.22;;;1.95;;
75616;SDS011;64200;55.426;37.758;2022-10-16T00:10:45;4.05;;;2.42;;
75616;SDS011;64200;55.426;37.758;2022-10-16T00:15:45;6.15;;;2.78;;
75616;SDS011;64200;55.426;37.758;2022-10-16T00:20:46;3.03;;;1.85;;
75616;SDS011;64200;55.426;37.758;2022-10-16T00:25:57;9.00;;;3.47;;
75616;SDS011;64200;55.426;37.758;2022-10-16T00:31:01;10.05;;;2.53;;
75616;SDS011;64200;55.426;37.758;2022-10-16T00:36:03;5.80;;;2.45;;
75616;SDS011;64200;55.426;37.758;2022-10-16T00:41:05;7.07;;;2.90;;
75616;SDS011;64200;55.426;37.758;2022-10-16T00:46:12;3.80;;;1.40;;
75616;SDS011;64200;55.426;37.758;2022-10-16T00:51:37;8.45;;;3.70;;
75616;SDS011;64200;55.426;37.758;2022-10-16T00:56:40;4.57;;;2.28;;
75616;SDS011;64200;55.426;37.758;2022-10-16T01:01:42;5.38;;;2.05;;
75616;SDS011;64200;55.426;37.758;2022-10-16T01:17:14;4.05;;;2.22;;
75616;SDS011;64200;55.426;37.758;2022-10-16T01:22:19;2.92;;;1.90;;
75616;SDS011;64200;55.426;37.758;2022-10-16T01:27:28;3.88;;;2.13;;
75616;SDS011;64200;55.426;37.758;2022-10-16T01:32:40;6.63;;;2.95;;
75616;SDS011;64200;55.426;37.758;2022-10-16T01:37:49;3.65;;;1.77;;
75616;SDS011;64200;55.426;37.758;2022-10-16T01:43:00;2.92;;;1.45;;
75616;SDS011;64200;55.426;37.758;2022-10-16T01:48:05;4.88;;;2.72;;
75616;SDS011;64200;55.426;37.758;2022-10-16T01:53:10;2.35;;;1.80;;
75616;SDS011;64200;55.426;37.758;2022-10-16T01:58:15;4.43;;;2.67;;
75616;SDS011;64200;55.426;37.758;2022-10-16T02:03:17;4.85;;;2.25;;
75616;SDS011;64200;55.426;37.758;2022-10-16T02:08:20;5.15;;;2.47;;
75616;SDS011;64200;55.426;37.758;2022-10-16T02:13:44;4.32;;;2.35;;
75616;SDS011;64200;55.426;37.758;2022-10-16T02:18:51;4.65;;;2.90;;
75616;SDS011;64200;55.426;37.758;2022-10-16T02:34:08;5.90;;;3.30;;
75616;SDS011;64200;55.426;37.758;2022-10-16T02:39:12;6.25;;;3.08;;
75616;SDS011;64200;55.426;37.758;2022-10-16T02:44:14;5.72;;;3.00;;
75616;SDS011;64200;55.426;37.758;2022-10-16T02:49:15;4.53;;;2.45;;
75616;SDS011;64200;55.426;37.758;2022-10-16T02:54:15;1.90;;;1.52;;
75616;SDS011;64200;55.426;37.758;2022-10-16T02:59:16;6.05;;;3.17;;
75616;SDS011;64200;55.426;37.758;2022-10-16T03:04:16;4.07;;;2.92;;
75616;SDS011;64200;55.426;37.758;2022-10-16T03:09:17;7.03;;;3.70;;
75616;SDS011;64200;55.426;37.758;2022-10-16T03:14:18;5.10;;;3.30;;
75616;SDS011;64200;55.426;37.758;2022-10-16T03:19:18;7.47;;;3.85;;
75616;SDS011;64200;55.426;37.758;2022-10-16T03:24:19;4.97;;;3.03;;
75616;SDS011;64200;55.426;37.758;2022-10-16T03:29:19;5.88;;;4.25;;
75616;SDS011;64200;55.426;37.758;2022-10-16T03:34:20;6.85;;;4.18;;
75616;SDS011;64200;55.426;37.758;2022-10-16T03:39:21;6.93;;;4.00;;
75616;SDS011;64200;55.426;37.758;2022-10-16T03:44:21;5.65;;;3.70;;
75616;SDS011;64200;55.426;37.758;2022-10-16T03:49:22;5.43;;;3.47;;
75616;SDS011;64200;55.426;37.758;2022-10-16T03:54:23;7.88;;;3.55;;
75616;SDS011;64200;55.426;37.758;2022-10-16T03:59:23;4.47;;;2.72;;
75616;SDS011;64200;55.426;37.758;2022-10-16T04:04:24;6.80;;;4.10;;
75616;SDS011;64200;55.426;37.758;2022-10-16T04:09:25;6.53;;;3.28;;
75616;SDS011;64200;55.426;37.758;2022-10-16T04:14:26;8.23;;;3.75;;
75616;SDS011;64200;55.426;37.758;2022-10-16T04:19:26;6.30;;;2.83;;
75616;SDS011;64200;55.426;37.758;2022-10-16T04:24:27;7.45;;;3.67;;
75616;SDS011;64200;55.426;37.758;2022-10-16T04:29:27;7.35;;;3.15;;
75616;SDS011;64200;55.426;37.758;2022-10-16T04:34:28;7.47;;;3.13;;
75616;SDS011;64200;55.426;37.758;2022-10-16T04:39:29;10.38;;;4.20;;
75616;SDS011;64200;55.426;37.758;2022-10-16T04:44:29;6.90;;;3.40;;
75616;SDS011;64200;55.426;37.758;2022-10-16T04:49:30;4.80;;;2.10;;
75616;SDS011;64200;55.426;37.758;2022-10-16T04:54:30;4.38;;;2.75;;
75616;SDS011;64200;55.426;37.758;2022-10-16T04:59:31;4.32;;;3.00;;
75616;SDS011;64200;55.426;37.758;2022-10-16T05:04:32;3.75;;;1.92;;
75616;SDS011;64200;55.426;37.758;2022-10-16T05:09:32;5.35;;;2.78;;
75616;SDS011;64200;55.426;37.758;2022-10-16T05:14:33;3.22;;;1.60;;
75616;SDS011;64200;55.426;37.758;2022-10-16T05:19:33;7.22;;;3.05;;
75616;SDS011;64200;55.426;37.758;2022-10-16T05:24:34;5.63;;;3.35;;
75616;SDS011;64200;55.426;37.758;2022-10-16T05:29:35;4.90;;;2.20;;
75616;SDS011;64200;55.426;37.758;2022-10-16T05:34:36;5.43;;;2.70;;
75616;SDS011;64200;55.426;37.758;2022-10-16T05:39:37;7.07;;;3.20;;
75616;SDS011;64200;55.426;37.758;2022-10-16T05:44:38;8.15;;;3.45;;
75616;SDS011;64200;55.426;37.758;2022-10-16T05:49:38;6.25;;;3.17;;
75616;SDS011;64200;55.426;37.758;2022-10-16T05:54:39;7.45;;;3.40;;
75616;SDS011;64200;55.426;37.758;2022-10-16T05:59:40;5.72;;;2.45;;
75616;SDS011;64200;55.426;37.758;2022-10-16T06:04:40;7.68;;;3.38;;
75616;SDS011;64200;55.426;37.758;2022-10-16T06:09:41;6.15;;;2.22;;
75616;SDS011;64200;55.426;37.758;2022-10-16T06:14:42;4.50;;;2.75;;
75616;SDS011;64200;55.426;37.758;2022-10-16T06:19:42;4.95;;;3.40;;
75616;SDS011;64200;55.426;37.758;2022-10-16T06:24:43;6.57;;;3.92;;
75616;SDS011;64200;55.426;37.758;2022-10-16T06:29:43;5.13;;;4.32;;
75616;SDS011;64200;55.426;37.758;2022-10-16T06:34:45;5.40;;;4.03;;
75616;SDS011;64200;55.426;37.758;2022-10-16T06:39:45;8.00;;;4.57;;
75616;SDS011;64200;55.426;37.758;2022-10-16T06:44:46;8.82;;;5.43;;
75616;SDS011;64200;55.426;37.758;2022-10-16T06:49:47;8.77;;;8.05;;
75616;SDS011;64200;55.426;37.758;2022-10-16T06:54:47;17.33;;;16.35;;
75616;SDS011;64200;55.426;37.758;2022-10-16T06:59:48;1999.90;;;999.90;;
75616;SDS011;64200;55.426;37.758;2022-10-16T07:04:48;1999.90;;;999.90;;
75616;SDS011;64200;55.426;37.758;2022-10-16T07:09:49;1999.90;;;999.90;;
75616;SDS011;64200;55.426;37.758;2022-10-16T07:14:50;1999.90;;;999.90;;
75616;SDS011;64200;55.426;37.758;2022-10-16T07:19:52;1999.90;;;999.90;;
75616;SDS011;64200;55.426;37.758;2022-10-16T07:24:53;1999.90;;;999.90;;
75616;SDS011;64200;55.426;37.758;2022-10-16T07:29:54;16.67;;;15.73;;
75616;SDS011;64200;55.426;37.758;2022-10-16T07:34:54;8.80;;;8.10;;
75616;SDS011;64200;55.426;37.758;2022-10-16T07:39:55;9.05;;;8.35;;
75616;SDS011;64200;55.426;37.758;2022-10-16T07:44:56;6.10;;;5.43;;
75616;SDS011;64200;55.426;37.758;2022-10-16T07:49:57;7.05;;;5.15;;
75616;SDS011;64200;55.426;37.758;2022-10-16T07:54:57;4.40;;;3.25;;
75616;SDS011;64200;55.426;37.758;2022-10-16T07:59:58;3.95;;;2.95;;
75616;SDS011;64200;55.426;37.758;2022-10-16T08:04:58;5.72;;;3.03;;
75616;SDS011;64200;55.426;37.758;2022-10-16T08:09:59;5.30;;;2.92;;
75616;SDS011;64200;55.426;37.758;2022-10-16T08:15:00;4.93;;;2.05;;
75616;SDS011;64200;55.426;37.758;2022-10-16T08:20:01;2.97;;;2.30;;
75616;SDS011;64200;55.426;37.758;2022-10-16T08:25:02;6.53;;;2.08;;
75616;SDS011;64200;55.426;37.758;2022-10-16T08:30:03;5.53;;;2.03;;
75616;SDS011;64200;55.426;37.758;2022-10-16T08:35:03;3.58;;;2.10;;
75616;SDS011;64200;55.426;37.758;2022-10-16T08:40:05;5.55;;;2.72;;
75616;SDS011;64200;55.426;37.758;2022-10-16T08:45:18;6.30;;;2.70;;
75616;SDS011;64200;55.426;37.758;2022-10-16T08:50:24;5.07;;;2.33;;
75616;SDS011;64200;55.426;37.758;2022-10-16T08:55:32;4.63;;;2.55;;
75616;SDS011;64200;55.426;37.758;2022-10-16T09:00:35;3.45;;;2.20;;
75616;SDS011;64200;55.426;37.758;2022-10-16T09:11:11;5.20;;;2.85;;
75616;SDS011;64200;55.426;37.758;2022-10-16T09:16:31;6.65;;;2.53;;
75616;SDS011;64200;55.426;37.758;2022-10-16T09:21:45;4.97;;;2.08;;
75616;SDS011;64200;55.426;37.758;2022-10-16T09:26:48;4.28;;;2.33;;
75616;SDS011;64200;55.426;37.758;2022-10-16T09:31:48;3.67;;;2.38;;
75616;SDS011;64200;55.426;37.758;2022-10-16T09:36:49;3.75;;;2.53;;
75616;SDS011;64200;55.426;37.758;2022-10-16T09:41:50;5.25;;;2.00;;
75616;SDS011;64200;55.426;37.758;2022-10-16T09:52:12;5.25;;;2.45;;
75616;SDS011;64200;55.426;37.758;2022-10-16T09:57:14;8.23;;;3.03;;
75616;SDS011;64200;55.426;37.758;2022-10-16T10:02:16;4.30;;;1.95;;
75616;SDS011;64200;55.426;37.758;2022-10-16T10:07:35;3.90;;;2.38;;
75616;SDS011;64200;55.426;37.758;2022-10-16T10:12:40;5.57;;;2.53;;
75616;SDS011;64200;55.426;37.758;2022-10-16T10:17:45;3.45;;;1.88;;
75616;SDS011;64200;55.426;37.758;2022-10-16T10:22:48;5.03;;;2.33;;
75616;SDS011;64200;55.426;37.758;2022-10-16T10:33:12;3.95;;;2.33;;
75616;SDS011;64200;55.426;37.758;2022-10-16T10:49:02;2.28;;;1.65;;
75616;SDS011;64200;55.426;37.758;2022-10-16T10:54:31;2.72;;;1.85;;
75616;SDS011;64200;55.426;37.758;2022-10-16T10:59:54;7.07;;;3.80;;
75616;SDS011;64200;55.426;37.758;2022-10-16T11:05:31;6.90;;;3.88;;
75616;SDS011;64200;55.426;37.758;2022-10-16T11:11:00;3.90;;;1.90;;
75616;SDS011;64200;55.426;37.758;2022-10-16T11:16:32;4.22;;;2.47;;
75616;SDS011;64200;55.426;37.758;2022-10-16T11:21:39;4.28;;;2.38;;
75616;SDS011;64200;55.426;37.758;2022-10-16T11:26:50;3.50;;;1.98;;
75616;SDS011;64200;55.426;37.758;2022-10-16T11:31:55;3.25;;;2.20;;
75616;SDS011;64200;55.426;37.758;2022-10-16T11:37:02;6.47;;;3.20;;
75616;SDS011;64200;55.426;37.758;2022-10-16T11:47:48;5.13;;;2.67;;
75616;SDS011;64200;55.426;37.758;2022-10-16T12:08:14;4.13;;;2.20;;
75616;SDS011;64200;55.426;37.758;2022-10-16T12:13:33;4.63;;;2.50;;
75616;SDS011;64200;55.426;37.758;2022-10-16T12:18:39;5.30;;;2.65;;
75616;SDS011;64200;55.426;37.758;2022-10-16T12:23:56;3.72;;;2.17;;
75616;SDS011;64200;55.426;37.758;2022-10-16T12:39:40;3.58;;;2.22;;
75616;SDS011;64200;55.426;37.758;2022-10-16T12:44:41;3.72;;;1.95;;
75616;SDS011;64200;55.426;37.758;2022-10-16T12:49:48;3.58;;;2.10;;
75616;SDS011;64200;55.426;37.758;2022-10-16T12:54:50;6.10;;;2.50;;
75616;SDS011;64200;55.426;37.758;2022-10-16T13:10:42;4.32;;;2.58;;
75616;SDS011;64200;55.426;37.758;2022-10-16T13:27:33;4.65;;;2.13;;
75616;SDS011;64200;55.426;37.758;2022-10-16T13:32:48;5.20;;;2.20;;
75616;SDS011;64200;55.426;37.758;2022-10-16T13:38:02;5.07;;;2.47;;
75616;SDS011;64200;55.426;37.758;2022-10-16T13:43:29;5.82;;;2.80;;
75616;SDS011;64200;55.426;37.758;2022-10-16T13:48:36;5.65;;;2.67;;
75616;SDS011;64200;55.426;37.758;2022-10-16T13:53:36;7.32;;;3.88;;
75616;SDS011;64200;55.426;37.758;2022-10-16T13:58:41;7.85;;;4.80;;
75616;SDS011;64200;55.426;37.758;2022-10-16T14:03:42;8.52;;;4.10;;
75616;SDS011;64200;55.426;37.758;2022-10-16T14:08:45;9.00;;;4.50;;
75616;SDS011;64200;55.426;37.758;2022-10-16T14:13:48;9.68;;;4.10;;
75616;SDS011;64200;55.426;37.758;2022-10-16T14:18:54;5.20;;;2.95;;
75616;SDS011;64200;55.426;37.758;2022-10-16T14:23:57;5.30;;;2.63;;
75616;SDS011;64200;55.426;37.758;2022-10-16T14:29:31;6.85;;;3.55;;
75616;SDS011;64200;55.426;37.758;2022-10-16T14:34:36;5.57;;;2.83;;
75616;SDS011;64200;55.426;37.758;2022-10-16T14:39:40;6.65;;;3.45;;
75616;SDS011;64200;55.426;37.758;2022-10-16T14:44:41;7.03;;;3.42;;
75616;SDS011;64200;55.426;37.758;2022-10-16T14:49:42;7.32;;;4.07;;
75616;SDS011;64200;55.426;37.758;2022-10-16T14:54:43;7.05;;;3.50;;
75616;SDS011;64200;55.426;37.758;2022-10-16T14:59:48;5.47;;;3.05;;
75616;SDS011;64200;55.426;37.758;2022-10-16T15:04:51;8.55;;;4.85;;
75616;SDS011;64200;55.426;37.758;2022-10-16T15:09:51;7.82;;;4.45;;
75616;SDS011;64200;55.426;37.758;2022-10-16T15:14:53;6.10;;;3.83;;
75616;SDS011;64200;55.426;37.758;2022-10-16T15:19:53;7.70;;;3.17;;
75616;SDS011;64200;55.426;37.758;2022-10-16T15:24:55;7.63;;;3.58;;
75616;SDS011;64200;55.426;37.758;2022-10-16T15:29:56;4.68;;;2.53;;
75616;SDS011;64200;55.426;37.758;2022-10-16T15:34:56;6.13;;;3.03;;
75616;SDS011;64200;55.426;37.758;2022-10-16T15:39:57;7.10;;;3.75;;
75616;SDS011;64200;55.426;37.758;2022-10-16T15:44:57;9.65;;;3.88;;
75616;SDS011;64200;55.426;37.758;2022-10-16T15:49:58;9.35;;;4.85;;
75616;SDS011;64200;55.426;37.758;2022-10-16T15:54:58;13.93;;;5.60;;
75616;SDS011;64200;55.426;37.758;2022-10-16T15:59:59;8.50;;;4.88;;
75616;SDS011;64200;55.426;37.758;2022-10-16T16:05:00;6.97;;;3.90;;
75616;SDS011;64200;55.426;37.758;2022-10-16T16:10:03;6.00;;;3.58;;
75616;SDS011;64200;55.426;37.758;2022-10-16T16:15:06;10.27;;;4.68;;
75616;SDS011;64200;55.426;37.758;2022-10-16T16:20:09;8.05;;;3.85;;
75616;SDS011;64200;55.426;37.758;2022-10-16T16:25:10;8.95;;;4.68;;
75616;SDS011;64200;55.426;37.758;2022-10-16T16:30:11;5.05;;;2.80;;
75616;SDS011;64200;55.426;37.758;2022-10-16T16:35:12;9.82;;;4.88;;
75616;SDS011;64200;55.426;37.758;2022-10-16T16:40:12;7.20;;;4.32;;
75616;SDS011;64200;55.426;37.758;2022-10-16T16:45:13;8.52;;;4.60;;
75616;SDS011;64200;55.426;37.758;2022-10-16T16:50:14;8.23;;;4.30;;
75616;SDS011;64200;55.426;37.758;2022-10-16T16:55:14;12.90;;;5.03;;
75616;SDS011;64200;55.426;37.758;2022-10-16T17:00:15;11.80;;;4.10;;
75616;SDS011;64200;55.426;37.758;2022-10-16T17:05:16;11.85;;;3.90;;
75616;SDS011;64200;55.426;37.758;2022-10-16T17:10:18;6.35;;;3.42;;
75616;SDS011;64200;55.426;37.758;2022-10-16T17:15:18;14.63;;;7.32;;
75616;SDS011;64200;55.426;37.758;2022-10-16T17:20:19;10.93;;;5.07;;
75616;SDS011;64200;55.426;37.758;2022-10-16T17:25:20;15.00;;;8.25;;
75616;SDS011;64200;55.426;37.758;2022-10-16T17:30:22;21.42;;;9.45;;
75616;SDS011;64200;55.426;37.758;2022-10-16T17:35:23;14.18;;;6.50;;
75616;SDS011;64200;55.426;37.758;2022-10-16T17:40:24;10.70;;;5.72;;
75616;SDS011;64200;55.426;37.758;2022-10-16T17:45:25;12.32;;;5.80;;
75616;SDS011;64200;55.426;37.758;2022-10-16T17:50:26;12.57;;;5.28;;
75616;SDS011;64200;55.426;37.758;2022-10-16T17:55:27;8.55;;;4.15;;
75616;SDS011;64200;55.426;37.758;2022-10-16T18:00:27;11.38;;;5.97;;
75616;SDS011;64200;55.426;37.758;2022-10-16T18:05:28;8.75;;;3.95;;
75616;SDS011;64200;55.426;37.758;2022-10-16T18:10:29;8.63;;;4.75;;
75616;SDS011;64200;55.426;37.758;2022-10-16T18:15:30;9.23;;;3.90;;
75616;SDS011;64200;55.426;37.758;2022-10-16T18:20:31;7.32;;;3.40;;
75616;SDS011;64200;55.426;37.758;2022-10-16T18:25:31;9.48;;;4.50;;
75616;SDS011;64200;55.426;37.758;2022-10-16T18:30:32;7.95;;;3.85;;
75616;SDS011;64200;55.426;37.758;2022-10-16T18:35:36;6.45;;;3.33;;
75616;SDS011;64200;55.426;37.758;2022-10-16T18:40:37;11.15;;;4.53;;
75616;SDS011;64200;55.426;37.758;2022-10-16T18:45:37;8.32;;;3.35;;
75616;SDS011;64200;55.426;37.758;2022-10-16T18:50:38;2.60;;;2.13;;
75616;SDS011;64200;55.426;37.758;2022-10-16T18:55:39;5.78;;;3.05;;
75616;SDS011;64200;55.426;37.758;2022-10-16T19:00:39;7.93;;;3.47;;
75616;SDS011;64200;55.426;37.758;2022-10-16T19:05:40;5.80;;;3.03;;
75616;SDS011;64200;55.426;37.758;2022-10-16T19:10:41;7.47;;;3.92;;
75616;SDS011;64200;55.426;37.758;2022-10-16T19:15:41;5.97;;;3.65;;
75616;SDS011;64200;55.426;37.758;2022-10-16T19:20:42;6.20;;;3.22;;
75616;SDS011;64200;55.426;37.758;2022-10-16T19:25:43;7.07;;;3.42;;
75616;SDS011;64200;55.426;37.758;2022-10-16T19:30:43;9.70;;;4.32;;
75616;SDS011;64200;55.426;37.758;2022-10-16T19:35:45;10.07;;;4.25;;
75616;SDS011;64200;55.426;37.758;2022-10-16T19:40:46;7.50;;;2.45;;
75616;SDS011;64200;55.426;37.758;2022-10-16T19:45:46;6.70;;;3.17;;
75616;SDS011;64200;55.426;37.758;2022-10-16T19:50:47;6.00;;;3.08;;
75616;SDS011;64200;55.426;37.758;2022-10-16T19:55:47;7.68;;;3.88;;
75616;SDS011;64200;55.426;37.758;2022-10-16T20:00:48;10.60;;;3.90;;
75616;SDS011;64200;55.426;37.758;2022-10-16T20:05:50;9.32;;;2.42;;
75616;SDS011;64200;55.426;37.758;2022-10-16T20:10:54;8.50;;;3.95;;
75616;SDS011;64200;55.426;37.758;2022-10-16T20:15:55;6.03;;;3.17;;
75616;SDS011;64200;55.426;37.758;2022-10-16T20:20:56;5.45;;;2.97;;
75616;SDS011;64200;55.426;37.758;2022-10-16T20:25:59;6.03;;;3.25;;
75616;SDS011;64200;55.426;37.758;2022-10-16T20:31:04;4.35;;;2.30;;
75616;SDS011;64200;55.426;37.758;2022-10-16T20:36:10;6.82;;;3.08;;
75616;SDS011;64200;55.426;37.758;2022-10-16T20:41:14;4.47;;;2.42;;
75616;SDS011;64200;55.426;37.758;2022-10-16T20:46:17;4.30;;;2.70;;
75616;SDS011;64200;55.426;37.758;2022-10-16T20:51:23;4.50;;;2.17;;
75616;SDS011;64200;55.426;37.758;2022-10-16T20:56:30;2.72;;;1.17;;
75616;SDS011;64200;55.426;37.758;2022-10-16T21:01:33;3.90;;;1.83;;
75616;SDS011;64200;55.426;37.758;2022-10-16T21:06:36;3.05;;;1.00;;
75616;SDS011;64200;55.426;37.758;2022-10-16T21:11:39;5.63;;;2.38;;
75616;SDS011;64200;55.426;37.758;2022-10-16T21:16:39;4.40;;;2.75;;
75616;SDS011;64200;55.426;37.758;2022-10-16T21:21:40;6.60;;;2.92;;
75616;SDS011;64200;55.426;37.758;2022-10-16T21:26:40;4.10;;;2.78;;
75616;SDS011;64200;55.426;37.758;2022-10-16T21:31:41;5.53;;;3.03;;
75616;SDS011;64200;55.426;37.758;2022-10-16T21:36:42;5.03;;;2.53;;
75616;SDS011;64200;55.426;37.758;2022-10-16T21:41:44;4.32;;;1.92;;
75616;SDS011;64200;55.426;37.758;2022-10-16T21:46:46;6.68;;;2.90;;
75616;SDS011;64200;55.426;37.758;2022-10-16T21:51:48;4.18;;;2.25;;
75616;SDS011;64200;55.426;37.758;2022-10-16T21:56:49;4.18;;;1.88;;
75616;SDS011;64200;55.426;37.758;2022-10-16T22:01:52;5.72;;;2.50;;
75616;SDS011;64200;55.426;37.758;2022-10-16T22:06:53;5.70;;;1.90;;
75616;SDS011;64200;55.426;37.758;2022-10-16T22:11:53;4.47;;;2.60;;
75616;SDS011;64200;55.426;37.758;2022-10-16T22:16:54;5.72;;;2.45;;
75616;SDS011;64200;55.426;37.758;2022-10-16T22:21:56;11.50;;;2.42;;
75616;SDS011;64200;55.426;37.758;2022-10-16T22:26:58;3.08;;;1.52;;
75616;SDS011;64200;55.426;37.758;2022-10-16T22:31:58;4.82;;;2.17;;
75616;SDS011;64200;55.426;37.758;2022-10-16T22:36:59;5.53;;;3.05;;
75616;SDS011;64200;55.426;37.758;2022-10-16T22:42:00;7.25;;;3.10;;
75616;SDS011;64200;55.426;37.758;2022-10-16T22:47:01;1.98;;;1.48;;
75616;SDS011;64200;55.426;37.758;2022-10-16T22:52:01;6.35;;;2.55;;
75616;SDS011;64200;55.426;37.758;2022-10-16T22:57:02;2.45;;;1.77;;
75616;SDS011;64200;55.426;37.758;2022-10-16T23:02:03;4.40;;;2.00;;
75616;SDS011;64200;55.426;37.758;2022-10-16T23:07:03;11.45;;;3.60;;
75616;SDS011;64200;55.426;37.758;2022-10-16T23:12:04;7.05;;;2.67;;
75616;SDS011;64200;55.426;37.758;2022-10-16T23:17:05;5.80;;;3.95;;
75616;SDS011;64200;55.426;37.758;2022-10-16T23:22:05;6.50;;;3.35;;
75616;SDS011;64200;55.426;37.758;2022-10-16T23:27:06;4.75;;;2.83;;
75616;SDS011;64200;55.426;37.758;2022-10-16T23:32:06;3.88;;;1.80;;
75616;SDS011;64200;55.426;37.758;2022-10-16T23:37:07;3.03;;;2.13;;
75616;SDS011;64200;55.426;37.758;2022-10-16T23:42:08;3.67;;;2.72;;
75616;SDS011;64200;55.426;37.758;2022-10-16T23:47:08;3.70;;;2.72;;
75616;SDS011;64200;55.426;37.758;2022-10-16T23:52:09;2.20;;;1.52;;
75616;SDS011;64200;55.426;37.758;2022-10-16T23:57:09;4.88;;;2.75;;
